sensor_id;sensor_type;location;lat;lon;timestamp;pressure;altitude;pressure_sealevel;temperature;humidity
12801;BME280;6464;42.494;27.470;2023-09-19T04:19:19;99974.94;;;17.74;100.00
12801;BME280;6464;42.494;27.470;2023-09-19T04:22:08;100017.44;;;17.61;100.00
12801;BME280;6464;42.494;27.470;2023-09-19T04:35:57;99963.41;;;17.73;100.00
12801;BME280;6464;42.494;27.470;2023-09-19T04:38:39;99826.34;;;16.73;100.00
12801;BME280;6464;42.494;27.470;2023-09-19T04:44:00;99919.84;;;17.29;100.00
12801;BME280;6464;42.494;27.470;2023-09-19T04:47:08;99831.03;;;16.84;100.00
12801;BME280;6464;42.494;27.470;2023-09-19T04:52:16;99816.78;;;16.85;100.00
12801;BME280;6464;42.494;27.470;2023-09-19T04:54:46;99914.22;;;17.63;100.00
12801;BME280;6464;42.494;27.470;2023-09-19T04:57:20;99885.94;;;17.46;100.00
12801;BME280;6464;42.494;27.470;2023-09-19T05:00:20;99836.91;;;17.05;100.00
12801;BME280;6464;42.494;27.470;2023-09-19T05:05:41;99992.22;;;17.97;100.00
12801;BME280;6464;42.494;27.470;2023-09-19T05:14:36;99846.88;;;17.01;100.00
12801;BME280;6464;42.494;27.470;2023-09-19T05:17:40;99981.81;;;17.78;100.00
12801;BME280;6464;42.494;27.470;2023-09-19T05:22:50;99952.25;;;17.37;100.00
12801;BME280;6464;42.494;27.470;2023-09-19T05:25:36;99887.63;;;17.03;100.00
12801;BME280;6464;42.494;27.470;2023-09-19T05:28:05;99924.31;;;17.28;100.00
12801;BME280;6464;42.494;27.470;2023-09-19T05:36:24;100001.34;;;17.93;100.00
12801;BME280;6464;42.494;27.470;2023-09-19T05:38:52;99927.81;;;17.75;100.00
12801;BME280;6464;42.494;27.470;2023-09-19T05:41:21;99964.59;;;18.12;100.00
12801;BME280;6464;42.494;27.470;2023-09-19T05:44:13;100110.53;;;18.99;100.00
12801;BME280;6464;42.494;27.470;2023-09-19T05:46:43;100169.81;;;19.06;100.00
12801;BME280;6464;42.494;27.470;2023-09-19T05:49:11;100027.63;;;18.58;100.00
12801;BME280;6464;42.494;27.470;2023-09-19T05:57:40;99957.38;;;18.43;100.00
12801;BME280;6464;42.494;27.470;2023-09-19T06:00:42;100064.94;;;19.02;100.00
12801;BME280;6464;42.494;27.470;2023-09-19T06:03:10;100175.38;;;19.72;100.00
12801;BME280;6464;42.494;27.470;2023-09-19T06:05:39;100183.34;;;19.87;100.00
12801;BME280;6464;42.494;27.470;2023-09-19T06:08:08;100214.25;;;19.92;100.00
12801;BME280;6464;42.494;27.470;2023-09-19T06:10:36;100087.31;;;19.14;100.00
12801;BME280;6464;42.494;27.470;2023-09-19T06:13:08;100164.34;;;19.36;100.00
12801;BME280;6464;42.494;27.470;2023-09-19T06:15:38;100190.94;;;19.80;100.00
12801;BME280;6464;42.494;27.470;2023-09-19T06:18:10;100177.63;;;19.93;100.00
12801;BME280;6464;42.494;27.470;2023-09-19T06:20:45;100185.97;;;19.88;100.00
12801;BME280;6464;42.494;27.470;2023-09-19T06:23:30;100190.72;;;19.97;100.00
12801;BME280;6464;42.494;27.470;2023-09-19T06:25:59;100198.81;;;19.96;100.00
12801;BME280;6464;42.494;27.470;2023-09-19T06:28:33;100128.41;;;19.68;100.00
12801;BME280;6464;42.494;27.470;2023-09-19T06:31:02;100156.59;;;19.87;100.00
12801;BME280;6464;42.494;27.470;2023-09-19T06:33:33;100125.31;;;19.74;100.00
12801;BME280;6464;42.494;27.470;2023-09-19T06:36:03;100108.47;;;19.60;100.00
12801;BME280;6464;42.494;27.470;2023-09-19T06:38:30;100220.78;;;20.28;100.00
12801;BME280;6464;42.494;27.470;2023-09-19T06:41:00;100154.63;;;20.03;100.00
12801;BME280;6464;42.494;27.470;2023-09-19T06:43:32;100144.97;;;20.27;100.00
12801;BME280;6464;42.494;27.470;2023-09-19T06:45:59;100160.56;;;20.48;100.00
12801;BME280;6464;42.494;27.470;2023-09-19T06:48:26;100182.84;;;20.74;100.00
12801;BME280;6464;42.494;27.470;2023-09-19T06:50:54;100168.94;;;20.56;100.00
12801;BME280;6464;42.494;27.470;2023-09-19T06:53:21;100250.31;;;20.93;100.00
12801;BME280;6464;42.494;27.470;2023-09-19T06:55:49;100254.41;;;21.12;100.00
12801;BME280;6464;42.494;27.470;2023-09-19T06:58:16;100186.63;;;20.97;100.00
12801;BME280;6464;42.494;27.470;2023-09-19T07:00:45;100214.38;;;21.21;100.00
12801;BME280;6464;42.494;27.470;2023-09-19T07:03:13;100208.69;;;21.26;100.00
12801;BME280;6464;42.494;27.470;2023-09-19T07:05:41;100284.19;;;21.84;100.00
12801;BME280;6464;42.494;27.470;2023-09-19T07:08:09;100210.81;;;21.59;100.00
12801;BME280;6464;42.494;27.470;2023-09-19T07:10:38;100205.00;;;21.65;100.00
12801;BME280;6464;42.494;27.470;2023-09-19T07:13:07;100286.63;;;22.36;100.00
12801;BME280;6464;42.494;27.470;2023-09-19T07:15:36;100224.63;;;22.15;100.00
12801;BME280;6464;42.494;27.470;2023-09-19T07:18:06;100227.34;;;22.50;100.00
12801;BME280;6464;42.494;27.470;2023-09-19T07:20:36;100224.53;;;22.87;100.00
12801;BME280;6464;42.494;27.470;2023-09-19T07:23:03;100200.88;;;23.03;100.00
12801;BME280;6464;42.494;27.470;2023-09-19T07:25:31;100150.88;;;23.23;100.00
12801;BME280;6464;42.494;27.470;2023-09-19T07:27:58;100080.34;;;23.08;100.00
12801;BME280;6464;42.494;27.470;2023-09-19T07:30:26;100136.66;;;23.44;100.00
12801;BME280;6464;42.494;27.470;2023-09-19T07:32:53;100116.81;;;23.56;100.00
12801;BME280;6464;42.494;27.470;2023-09-19T07:35:24;100198.78;;;23.85;100.00
12801;BME280;6464;42.494;27.470;2023-09-19T07:37:51;100200.34;;;23.99;100.00
12801;BME280;6464;42.494;27.470;2023-09-19T07:40:18;100191.16;;;23.91;100.00
12801;BME280;6464;42.494;27.470;2023-09-19T07:42:45;100267.22;;;24.38;100.00
12801;BME280;6464;42.494;27.470;2023-09-19T07:45:13;100274.31;;;24.39;100.00
12801;BME280;6464;42.494;27.470;2023-09-19T07:47:44;100260.34;;;24.45;100.00
12801;BME280;6464;42.494;27.470;2023-09-19T07:50:11;100310.16;;;24.61;100.00
12801;BME280;6464;42.494;27.470;2023-09-19T07:52:39;100318.94;;;24.96;100.00
12801;BME280;6464;42.494;27.470;2023-09-19T07:55:07;100339.50;;;25.08;100.00
12801;BME280;6464;42.494;27.470;2023-09-19T07:57:34;100367.16;;;25.21;100.00
12801;BME280;6464;42.494;27.470;2023-09-19T08:00:01;100368.09;;;25.31;100.00
12801;BME280;6464;42.494;27.470;2023-09-19T08:02:30;100368.78;;;25.33;100.00
12801;BME280;6464;42.494;27.470;2023-09-19T08:05:00;100391.91;;;25.68;100.00
12801;BME280;6464;42.494;27.470;2023-09-19T08:07:31;100424.19;;;25.91;100.00
12801;BME280;6464;42.494;27.470;2023-09-19T08:09:59;100418.19;;;25.66;100.00
12801;BME280;6464;42.494;27.470;2023-09-19T08:12:26;100442.50;;;25.66;100.00
12801;BME280;6464;42.494;27.470;2023-09-19T08:14:53;100447.13;;;25.75;100.00
12801;BME280;6464;42.494;27.470;2023-09-19T08:17:20;100456.38;;;25.61;100.00
12801;BME280;6464;42.494;27.470;2023-09-19T08:19:48;100436.69;;;25.92;100.00
12801;BME280;6464;42.494;27.470;2023-09-19T08:22:18;100470.09;;;25.70;100.00
12801;BME280;6464;42.494;27.470;2023-09-19T08:24:45;100466.16;;;25.95;100.00
12801;BME280;6464;42.494;27.470;2023-09-19T08:27:15;100489.81;;;25.81;100.00
12801;BME280;6464;42.494;27.470;2023-09-19T08:29:43;100380.25;;;25.47;100.00
12801;BME280;6464;42.494;27.470;2023-09-19T08:32:12;100395.47;;;25.48;100.00
12801;BME280;6464;42.494;27.470;2023-09-19T08:34:38;100511.31;;;25.83;100.00
12801;BME280;6464;42.494;27.470;2023-09-19T08:37:05;100557.31;;;26.13;100.00
12801;BME280;6464;42.494;27.470;2023-09-19T08:39:32;100567.19;;;26.24;100.00
12801;BME280;6464;42.494;27.470;2023-09-19T08:42:02;100504.94;;;25.84;100.00
12801;BME280;6464;42.494;27.470;2023-09-19T08:44:36;100590.94;;;26.42;100.00
12801;BME280;6464;42.494;27.470;2023-09-19T08:47:09;100596.53;;;26.71;100.00
12801;BME280;6464;42.494;27.470;2023-09-19T08:49:43;100613.34;;;26.74;100.00
12801;BME280;6464;42.494;27.470;2023-09-19T08:52:20;100746.56;;;26.87;100.00
12801;BME280;6464;42.494;27.470;2023-09-19T08:54:51;100714.19;;;27.07;100.00
12801;BME280;6464;42.494;27.470;2023-09-19T08:57:19;100753.75;;;26.77;100.00
12801;BME280;6464;42.494;27.470;2023-09-19T08:59:49;100747.78;;;27.25;100.00
12801;BME280;6464;42.494;27.470;2023-09-19T09:02:16;100788.44;;;27.65;100.00
12801;BME280;6464;42.494;27.470;2023-09-19T09:04:46;100823.06;;;27.83;100.00
12801;BME280;6464;42.494;27.470;2023-09-19T09:07:14;100855.94;;;27.99;100.00
12801;BME280;6464;42.494;27.470;2023-09-19T09:09:42;101048.53;;;29.39;100.00
12801;BME280;6464;42.494;27.470;2023-09-19T09:12:11;101077.22;;;29.03;100.00
12801;BME280;6464;42.494;27.470;2023-09-19T09:14:39;101159.16;;;29.68;100.00
12801;BME280;6464;42.494;27.470;2023-09-19T09:17:08;101333.22;;;30.86;100.00
12801;BME280;6464;42.494;27.470;2023-09-19T09:19:35;101483.38;;;31.78;100.00
12801;BME280;6464;42.494;27.470;2023-09-19T09:22:09;101423.47;;;30.62;100.00
12801;BME280;6464;42.494;27.470;2023-09-19T09:24:37;101187.78;;;29.91;100.00
12801;BME280;6464;42.494;27.470;2023-09-19T09:27:06;101373.28;;;31.32;100.00
12801;BME280;6464;42.494;27.470;2023-09-19T09:29:45;101396.38;;;31.09;100.00
12801;BME280;6464;42.494;27.470;2023-09-19T09:32:23;101358.69;;;30.56;100.00
12801;BME280;6464;42.494;27.470;2023-09-19T09:34:52;101683.38;;;33.39;100.00
12801;BME280;6464;42.494;27.470;2023-09-19T09:37:20;101845.59;;;34.22;100.00
12801;BME280;6464;42.494;27.470;2023-09-19T09:39:52;101839.19;;;33.86;100.00
12801;BME280;6464;42.494;27.470;2023-09-19T09:42:31;101888.97;;;34.98;100.00
12801;BME280;6464;42.494;27.470;2023-09-19T09:45:13;102045.63;;;37.26;100.00
12801;BME280;6464;42.494;27.470;2023-09-19T09:47:47;102067.00;;;38.28;100.00
12801;BME280;6464;42.494;27.470;2023-09-19T09:50:29;101856.59;;;34.58;100.00
12801;BME280;6464;42.494;27.470;2023-09-19T09:53:22;102040.16;;;37.42;100.00
12801;BME280;6464;42.494;27.470;2023-09-19T09:56:03;102081.13;;;38.42;100.00
12801;BME280;6464;42.494;27.470;2023-09-19T09:58:32;102064.72;;;38.48;100.00
12801;BME280;6464;42.494;27.470;2023-09-19T10:01:01;102127.75;;;40.05;100.00
12801;BME280;6464;42.494;27.470;2023-09-19T10:03:36;102163.19;;;41.20;100.00
12801;BME280;6464;42.494;27.470;2023-09-19T10:06:07;101974.41;;;36.74;100.00
12801;BME280;6464;42.494;27.470;2023-09-19T10:09:00;101787.88;;;34.15;100.00
12801;BME280;6464;42.494;27.470;2023-09-19T10:11:32;101679.78;;;34.01;100.00
12801;BME280;6464;42.494;27.470;2023-09-19T10:14:06;101865.75;;;36.21;100.00
12801;BME280;6464;42.494;27.470;2023-09-19T10:16:40;102007.63;;;38.57;100.00
12801;BME280;6464;42.494;27.470;2023-09-19T10:19:09;101981.31;;;37.60;100.00
12801;BME280;6464;42.494;27.470;2023-09-19T10:21:37;102068.94;;;39.67;100.00
12801;BME280;6464;42.494;27.470;2023-09-19T10:24:07;102080.88;;;40.93;100.00
12801;BME280;6464;42.494;27.470;2023-09-19T10:26:36;102097.66;;;40.40;100.00
12801;BME280;6464;42.494;27.470;2023-09-19T10:29:06;101988.78;;;37.98;100.00
12801;BME280;6464;42.494;27.470;2023-09-19T10:31:36;102013.53;;;38.85;100.00
12801;BME280;6464;42.494;27.470;2023-09-19T10:34:08;102074.41;;;40.49;100.00
12801;BME280;6464;42.494;27.470;2023-09-19T10:36:36;102062.59;;;39.96;100.00
12801;BME280;6464;42.494;27.470;2023-09-19T10:39:06;101974.13;;;38.45;100.00
12801;BME280;6464;42.494;27.470;2023-09-19T10:41:34;101841.75;;;36.23;100.00
12801;BME280;6464;42.494;27.470;2023-09-19T10:44:04;101925.66;;;37.89;100.00
12801;BME280;6464;42.494;27.470;2023-09-19T10:46:31;101951.34;;;38.20;100.00
12801;BME280;6464;42.494;27.470;2023-09-19T10:48:59;101989.09;;;38.74;100.00
12801;BME280;6464;42.494;27.470;2023-09-19T10:51:31;101906.91;;;37.84;100.00
12801;BME280;6464;42.494;27.470;2023-09-19T10:54:07;101862.34;;;37.25;100.00
12801;BME280;6464;42.494;27.470;2023-09-19T10:56:38;102001.34;;;39.40;100.00
12801;BME280;6464;42.494;27.470;2023-09-19T10:59:09;101947.53;;;38.52;100.00
12801;BME280;6464;42.494;27.470;2023-09-19T11:01:42;101996.84;;;39.77;100.00
12801;BME280;6464;42.494;27.470;2023-09-19T11:04:25;102052.88;;;41.67;100.00
12801;BME280;6464;42.494;27.470;2023-09-19T11:07:02;102077.13;;;42.21;100.00
12801;BME280;6464;42.494;27.470;2023-09-19T11:09:49;101968.22;;;37.62;100.00
12801;BME280;6464;42.494;27.470;2023-09-19T11:12:49;101937.56;;;38.51;100.00
12801;BME280;6464;42.494;27.470;2023-09-19T11:21:51;102030.63;;;40.89;100.00
12801;BME280;6464;42.494;27.470;2023-09-19T11:24:34;102003.41;;;40.35;100.00
12801;BME280;6464;42.494;27.470;2023-09-19T11:27:14;102002.16;;;40.74;100.00
12801;BME280;6464;42.494;27.470;2023-09-19T11:29:43;102043.22;;;41.34;100.00
12801;BME280;6464;42.494;27.470;2023-09-19T11:32:10;101961.44;;;39.66;100.00
12801;BME280;6464;42.494;27.470;2023-09-19T11:34:42;101976.13;;;40.32;100.00
12801;BME280;6464;42.494;27.470;2023-09-19T11:40:15;102061.97;;;42.17;100.00
12801;BME280;6464;42.494;27.470;2023-09-19T11:42:43;102075.16;;;43.24;100.00
12801;BME280;6464;42.494;27.470;2023-09-19T11:48:23;102025.50;;;41.78;100.00
12801;BME280;6464;42.494;27.470;2023-09-19T11:50:52;101957.28;;;39.32;100.00
12801;BME280;6464;42.494;27.470;2023-09-19T11:53:20;101830.00;;;37.43;100.00
12801;BME280;6464;42.494;27.470;2023-09-19T11:55:49;101903.63;;;38.51;100.00
12801;BME280;6464;42.494;27.470;2023-09-19T11:58:18;101952.16;;;39.88;100.00
12801;BME280;6464;42.494;27.470;2023-09-19T12:00:45;101955.78;;;39.74;100.00
12801;BME280;6464;42.494;27.470;2023-09-19T12:03:13;101928.94;;;39.15;100.00
12801;BME280;6464;42.494;27.470;2023-09-19T12:05:40;101876.13;;;38.12;100.00
12801;BME280;6464;42.494;27.470;2023-09-19T12:08:07;101661.25;;;34.99;100.00
12801;BME280;6464;42.494;27.470;2023-09-19T12:10:45;101835.72;;;37.73;100.00
12801;BME280;6464;42.494;27.470;2023-09-19T12:13:17;101936.06;;;39.47;100.00
12801;BME280;6464;42.494;27.470;2023-09-19T12:15:44;101979.44;;;40.78;100.00
12801;BME280;6464;42.494;27.470;2023-09-19T12:18:26;101975.16;;;40.54;100.00
12801;BME280;6464;42.494;27.470;2023-09-19T12:20:53;101971.06;;;40.93;100.00
12801;BME280;6464;42.494;27.470;2023-09-19T12:23:20;101946.50;;;39.75;100.00
12801;BME280;6464;42.494;27.470;2023-09-19T12:25:47;101788.66;;;37.51;100.00
12801;BME280;6464;42.494;27.470;2023-09-19T12:28:20;101822.56;;;36.56;100.00
12801;BME280;6464;42.494;27.470;2023-09-19T12:30:48;101774.97;;;37.27;100.00
12801;BME280;6464;42.494;27.470;2023-09-19T12:33:16;101910.25;;;38.65;100.00
12801;BME280;6464;42.494;27.470;2023-09-19T12:35:45;101888.50;;;38.16;100.00
12801;BME280;6464;42.494;27.470;2023-09-19T12:38:23;101820.50;;;36.90;100.00
12801;BME280;6464;42.494;27.470;2023-09-19T12:40:50;101881.22;;;38.23;100.00
12801;BME280;6464;42.494;27.470;2023-09-19T12:43:19;101871.41;;;38.51;100.00
12801;BME280;6464;42.494;27.470;2023-09-19T12:45:47;101750.81;;;35.67;100.00
12801;BME280;6464;42.494;27.470;2023-09-19T12:48:21;101760.69;;;35.94;100.00
12801;BME280;6464;42.494;27.470;2023-09-19T12:51:05;101607.66;;;33.75;100.00
12801;BME280;6464;42.494;27.470;2023-09-19T12:53:33;101347.19;;;31.20;100.00
12801;BME280;6464;42.494;27.470;2023-09-19T12:56:02;101260.56;;;31.14;100.00
12801;BME280;6464;42.494;27.470;2023-09-19T12:58:32;101245.41;;;31.11;100.00
12801;BME280;6464;42.494;27.470;2023-09-19T13:01:00;101242.31;;;31.61;100.00
12801;BME280;6464;42.494;27.470;2023-09-19T13:03:28;101438.03;;;32.69;100.00
12801;BME280;6464;42.494;27.470;2023-09-19T13:06:01;101474.25;;;32.34;100.00
12801;BME280;6464;42.494;27.470;2023-09-19T13:08:30;101412.63;;;32.14;100.00
12801;BME280;6464;42.494;27.470;2023-09-19T13:11:02;101629.44;;;33.31;100.00
12801;BME280;6464;42.494;27.470;2023-09-19T13:13:29;101558.66;;;32.92;100.00
12801;BME280;6464;42.494;27.470;2023-09-19T13:15:57;101602.78;;;33.61;100.00
12801;BME280;6464;42.494;27.470;2023-09-19T13:18:25;101548.13;;;32.97;100.00
12801;BME280;6464;42.494;27.470;2023-09-19T13:21:05;101498.44;;;32.84;100.00
12801;BME280;6464;42.494;27.470;2023-09-19T13:23:36;101582.19;;;33.74;100.00
12801;BME280;6464;42.494;27.470;2023-09-19T13:26:03;101640.06;;;33.97;100.00
12801;BME280;6464;42.494;27.470;2023-09-19T13:28:31;101703.09;;;35.10;100.00
12801;BME280;6464;42.494;27.470;2023-09-19T13:30:59;101689.47;;;34.92;100.00
12801;BME280;6464;42.494;27.470;2023-09-19T13:33:26;101678.28;;;34.77;100.00
12801;BME280;6464;42.494;27.470;2023-09-19T13:35:53;101703.44;;;35.07;100.00
12801;BME280;6464;42.494;27.470;2023-09-19T13:38:21;101753.38;;;35.61;100.00
12801;BME280;6464;42.494;27.470;2023-09-19T13:40:48;101582.41;;;32.82;100.00
12801;BME280;6464;42.494;27.470;2023-09-19T13:43:18;101437.38;;;32.03;100.00
12801;BME280;6464;42.494;27.470;2023-09-19T13:45:45;101570.88;;;33.34;100.00
12801;BME280;6464;42.494;27.470;2023-09-19T13:48:14;101629.88;;;34.60;100.00
12801;BME280;6464;42.494;27.470;2023-09-19T13:50:40;101758.69;;;35.62;100.00
12801;BME280;6464;42.494;27.470;2023-09-19T13:53:07;101752.03;;;35.73;100.00
12801;BME280;6464;42.494;27.470;2023-09-19T13:55:34;101673.19;;;34.12;100.00
12801;BME280;6464;42.494;27.470;2023-09-19T13:58:03;101481.38;;;31.70;100.00
12801;BME280;6464;42.494;27.470;2023-09-19T14:00:32;101395.41;;;31.10;100.00
12801;BME280;6464;42.494;27.470;2023-09-19T14:02:59;101241.81;;;30.15;100.00
12801;BME280;6464;42.494;27.470;2023-09-19T14:05:28;101280.75;;;30.55;100.00
12801;BME280;6464;42.494;27.470;2023-09-19T14:07:55;101254.09;;;30.49;100.00
12801;BME280;6464;42.494;27.470;2023-09-19T14:10:22;101178.94;;;29.99;100.00
12801;BME280;6464;42.494;27.470;2023-09-19T14:12:50;101124.97;;;29.56;100.00
12801;BME280;6464;42.494;27.470;2023-09-19T14:15:17;101211.97;;;29.85;100.00
12801;BME280;6464;42.494;27.470;2023-09-19T14:17:44;101266.81;;;30.00;100.00
12801;BME280;6464;42.494;27.470;2023-09-19T14:20:11;101231.44;;;29.80;100.00
12801;BME280;6464;42.494;27.470;2023-09-19T14:22:41;101028.06;;;28.97;100.00
12801;BME280;6464;42.494;27.470;2023-09-19T14:25:08;101017.31;;;28.95;100.00
12801;BME280;6464;42.494;27.470;2023-09-19T14:27:35;100959.09;;;28.68;100.00
12801;BME280;6464;42.494;27.470;2023-09-19T14:30:03;100983.91;;;29.14;100.00
12801;BME280;6464;42.494;27.470;2023-09-19T14:32:30;101145.53;;;30.45;100.00
12801;BME280;6464;42.494;27.470;2023-09-19T14:34:57;101150.13;;;30.35;100.00
12801;BME280;6464;42.494;27.470;2023-09-19T14:37:24;101232.88;;;31.28;100.00
12801;BME280;6464;42.494;27.470;2023-09-19T14:39:54;101208.19;;;31.57;100.00
12801;BME280;6464;42.494;27.470;2023-09-19T14:42:21;101297.59;;;32.36;100.00
12801;BME280;6464;42.494;27.470;2023-09-19T14:44:48;101066.69;;;30.63;100.00
12801;BME280;6464;42.494;27.470;2023-09-19T14:47:15;100767.94;;;28.90;100.00
12801;BME280;6464;42.494;27.470;2023-09-19T14:49:42;100615.53;;;28.19;100.00
12801;BME280;6464;42.494;27.470;2023-09-19T14:52:11;100413.75;;;27.26;100.00
12801;BME280;6464;42.494;27.470;2023-09-19T14:54:41;100229.19;;;26.84;100.00
12801;BME280;6464;42.494;27.470;2023-09-19T14:57:09;100059.84;;;26.34;100.00
12801;BME280;6464;42.494;27.470;2023-09-19T14:59:36;99948.22;;;26.14;100.00
12801;BME280;6464;42.494;27.470;2023-09-19T15:02:03;99940.78;;;25.79;100.00
12801;BME280;6464;42.494;27.470;2023-09-19T15:04:30;99888.81;;;25.29;100.00
12801;BME280;6464;42.494;27.470;2023-09-19T15:06:57;99808.72;;;25.20;100.00
12801;BME280;6464;42.494;27.470;2023-09-19T15:09:25;99738.47;;;24.73;100.00
12801;BME280;6464;42.494;27.470;2023-09-19T15:11:52;99730.94;;;24.86;100.00
12801;BME280;6464;42.494;27.470;2023-09-19T15:14:21;99593.66;;;24.36;100.00
12801;BME280;6464;42.494;27.470;2023-09-19T15:16:50;99514.94;;;24.32;100.00
12801;BME280;6464;42.494;27.470;2023-09-19T15:19:16;99530.09;;;24.33;100.00
12801;BME280;6464;42.494;27.470;2023-09-19T15:21:44;99532.22;;;24.30;100.00
12801;BME280;6464;42.494;27.470;2023-09-19T15:24:11;99528.13;;;24.26;100.00
12801;BME280;6464;42.494;27.470;2023-09-19T15:26:38;99439.75;;;23.82;100.00
12801;BME280;6464;42.494;27.470;2023-09-19T15:29:05;99459.56;;;24.01;100.00
12801;BME280;6464;42.494;27.470;2023-09-19T15:31:34;99487.31;;;24.21;100.00
12801;BME280;6464;42.494;27.470;2023-09-19T15:34:01;99429.13;;;23.62;100.00
12801;BME280;6464;42.494;27.470;2023-09-19T15:36:29;99454.91;;;23.64;100.00
12801;BME280;6464;42.494;27.470;2023-09-19T15:38:59;99446.69;;;23.46;100.00
12801;BME280;6464;42.494;27.470;2023-09-19T15:41:27;99417.97;;;23.47;100.00
12801;BME280;6464;42.494;27.470;2023-09-19T15:43:54;99389.06;;;23.49;100.00
12801;BME280;6464;42.494;27.470;2023-09-19T15:46:21;99452.34;;;23.92;100.00
12801;BME280;6464;42.494;27.470;2023-09-19T15:48:49;99480.53;;;24.07;100.00
12801;BME280;6464;42.494;27.470;2023-09-19T15:51:16;99500.38;;;24.06;100.00
12801;BME280;6464;42.494;27.470;2023-09-19T15:53:44;99498.25;;;24.00;100.00
12801;BME280;6464;42.494;27.470;2023-09-19T15:56:12;99501.53;;;23.94;100.00
12801;BME280;6464;42.494;27.470;2023-09-19T15:58:40;99422.59;;;23.45;100.00
12801;BME280;6464;42.494;27.470;2023-09-19T16:01:07;99412.25;;;23.21;100.00
12801;BME280;6464;42.494;27.470;2023-09-19T16:03:35;99485.41;;;23.65;100.00
12801;BME280;6464;42.494;27.470;2023-09-19T16:06:08;99445.69;;;23.47;100.00
12801;BME280;6464;42.494;27.470;2023-09-19T16:08:39;99429.28;;;23.41;100.00
12801;BME280;6464;42.494;27.470;2023-09-19T16:11:07;99457.88;;;23.51;100.00
12801;BME280;6464;42.494;27.470;2023-09-19T16:13:34;99411.00;;;23.15;100.00
12801;BME280;6464;42.494;27.470;2023-09-19T16:16:01;99383.25;;;23.05;100.00
12801;BME280;6464;42.494;27.470;2023-09-19T16:18:28;99370.09;;;23.02;100.00
12801;BME280;6464;42.494;27.470;2023-09-19T16:21:01;99408.88;;;23.28;100.00
12801;BME280;6464;42.494;27.470;2023-09-19T16:23:29;99418.22;;;23.24;100.00
12801;BME280;6464;42.494;27.470;2023-09-19T16:26:01;99415.53;;;23.24;100.00
12801;BME280;6464;42.494;27.470;2023-09-19T16:28:30;99418.38;;;23.23;100.00
12801;BME280;6464;42.494;27.470;2023-09-19T16:30:58;99429.56;;;23.18;100.00
12801;BME280;6464;42.494;27.470;2023-09-19T16:33:25;99466.03;;;23.11;100.00
12801;BME280;6464;42.494;27.470;2023-09-19T16:35:52;99485.88;;;23.10;100.00
12801;BME280;6464;42.494;27.470;2023-09-19T16:38:19;99485.56;;;23.03;100.00
12801;BME280;6464;42.494;27.470;2023-09-19T16:40:52;99443.88;;;22.78;100.00
12801;BME280;6464;42.494;27.470;2023-09-19T16:43:20;99494.06;;;22.99;100.00
12801;BME280;6464;42.494;27.470;2023-09-19T16:45:52;99468.31;;;22.66;100.00
12801;BME280;6464;42.494;27.470;2023-09-19T16:48:20;99460.16;;;22.46;100.00
12801;BME280;6464;42.494;27.470;2023-09-19T16:50:47;99595.34;;;22.89;100.00
12801;BME280;6464;42.494;27.470;2023-09-19T16:53:14;99600.94;;;22.86;100.00
12801;BME280;6464;42.494;27.470;2023-09-19T16:55:42;99573.41;;;22.72;100.00
12801;BME280;6464;42.494;27.470;2023-09-19T16:58:10;99537.09;;;22.78;100.00
12801;BME280;6464;42.494;27.470;2023-09-19T17:00:37;99438.28;;;22.20;100.00
12801;BME280;6464;42.494;27.470;2023-09-19T17:03:04;99528.16;;;22.68;100.00
12801;BME280;6464;42.494;27.470;2023-09-19T17:05:32;99514.94;;;22.55;100.00
12801;BME280;6464;42.494;27.470;2023-09-19T17:07:59;99467.81;;;22.20;100.00
12801;BME280;6464;42.494;27.470;2023-09-19T17:10:29;99537.59;;;22.62;100.00
12801;BME280;6464;42.494;27.470;2023-09-19T17:12:57;99478.97;;;22.16;100.00
12801;BME280;6464;42.494;27.470;2023-09-19T17:15:27;99537.66;;;22.51;100.00
12801;BME280;6464;42.494;27.470;2023-09-19T17:17:57;99559.47;;;22.57;100.00
12801;BME280;6464;42.494;27.470;2023-09-19T17:20:24;99541.34;;;22.50;100.00
12801;BME280;6464;42.494;27.470;2023-09-19T17:22:50;99483.78;;;22.22;100.00
12801;BME280;6464;42.494;27.470;2023-09-19T17:25:17;99463.31;;;22.10;100.00
12801;BME280;6464;42.494;27.470;2023-09-19T17:27:46;99487.91;;;22.05;100.00
12801;BME280;6464;42.494;27.470;2023-09-19T17:30:13;99488.56;;;22.39;100.00
12801;BME280;6464;42.494;27.470;2023-09-19T17:32:42;99489.53;;;22.38;100.00
12801;BME280;6464;42.494;27.470;2023-09-19T17:35:09;99494.63;;;22.41;100.00
12801;BME280;6464;42.494;27.470;2023-09-19T17:37:36;99418.31;;;21.92;100.00
12801;BME280;6464;42.494;27.470;2023-09-19T17:40:06;99473.75;;;22.24;100.00
12801;BME280;6464;42.494;27.470;2023-09-19T17:42:36;99402.94;;;21.73;100.00
12801;BME280;6464;42.494;27.470;2023-09-19T17:45:06;99466.69;;;22.23;100.00
12801;BME280;6464;42.494;27.470;2023-09-19T17:47:46;99464.41;;;22.18;100.00
12801;BME280;6464;42.494;27.470;2023-09-19T17:50:13;99471.00;;;22.14;100.00
12801;BME280;6464;42.494;27.470;2023-09-19T17:52:41;99467.28;;;22.05;100.00
12801;BME280;6464;42.494;27.470;2023-09-19T17:55:10;99454.91;;;21.93;100.00
12801;BME280;6464;42.494;27.470;2023-09-19T17:57:37;99481.09;;;22.01;100.00
12801;BME280;6464;42.494;27.470;2023-09-19T18:00:07;99505.91;;;21.93;100.00
12801;BME280;6464;42.494;27.470;2023-09-19T18:02:36;99523.16;;;21.79;100.00
12801;BME280;6464;42.494;27.470;2023-09-19T18:05:05;99515.38;;;21.44;100.00
12801;BME280;6464;42.494;27.470;2023-09-19T18:07:32;99571.19;;;21.62;100.00
12801;BME280;6464;42.494;27.470;2023-09-19T18:09:59;99584.69;;;21.60;100.00